sensor_id;sensor_type;location;lat;lon;timestamp;P1;durP1;ratioP1;P2;durP2;ratioP2
72882;SDS011;61017;37.812;-122.286;2023-03-21T00:00:55;8.40;;;2.30;;
72882;SDS011;61017;37.812;-122.286;2023-03-21T00:02:28;7.03;;;2.10;;
72882;SDS011;61017;37.812;-122.286;2023-03-21T00:04:00;6.95;;;2.10;;
72882;SDS011;61017;37.812;-122.286;2023-03-21T00:05:32;10.00;;;2.40;;
72882;SDS011;61017;37.812;-122.286;2023-03-21T00:07:04;8.85;;;2.50;;
72882;SDS011;61017;37.812;-122.286;2023-03-21T00:08:36;8.90;;;2.25;;
72882;SDS011;61017;37.812;-122.286;2023-03-21T00:10:08;7.15;;;2.13;;
72882;SDS011;61017;37.812;-122.286;2023-03-21T00:11:40;8.90;;;1.90;;
72882;SDS011;61017;37.812;-122.286;2023-03-21T00:13:12;10.57;;;2.50;;
72882;SDS011;61017;37.812;-122.286;2023-03-21T00:14:45;7.25;;;2.10;;
72882;SDS011;61017;37.812;-122.286;2023-03-21T00:16:17;6.25;;;2.38;;
72882;SDS011;61017;37.812;-122.286;2023-03-21T00:17:49;7.03;;;2.53;;
72882;SDS011;61017;37.812;-122.286;2023-03-21T00:19:20;6.85;;;2.20;;
72882;SDS011;61017;37.812;-122.286;2023-03-21T00:20:59;7.82;;;2.10;;
72882;SDS011;61017;37.812;-122.286;2023-03-21T00:22:34;6.65;;;2.30;;
72882;SDS011;61017;37.812;-122.286;2023-03-21T00:24:06;9.07;;;2.70;;
72882;SDS011;61017;37.812;-122.286;2023-03-21T00:25:38;6.82;;;2.20;;
72882;SDS011;61017;37.812;-122.286;2023-03-21T00:27:09;7.68;;;2.00;;
72882;SDS011;61017;37.812;-122.286;2023-03-21T00:28:41;5.85;;;2.20;;
72882;SDS011;61017;37.812;-122.286;2023-03-21T00:30:13;8.65;;;2.10;;
72882;SDS011;61017;37.812;-122.286;2023-03-21T00:31:45;7.40;;;2.08;;
72882;SDS011;61017;37.812;-122.286;2023-03-21T00:33:17;10.75;;;2.20;;
72882;SDS011;61017;37.812;-122.286;2023-03-21T00:34:48;9.15;;;2.25;;
72882;SDS011;61017;37.812;-122.286;2023-03-21T00:36:20;6.68;;;2.08;;
72882;SDS011;61017;37.812;-122.286;2023-03-21T00:37:51;7.20;;;2.08;;
72882;SDS011;61017;37.812;-122.286;2023-03-21T00:39:23;5.82;;;1.90;;
72882;SDS011;61017;37.812;-122.286;2023-03-21T00:40:54;8.93;;;2.03;;
72882;SDS011;61017;37.812;-122.286;2023-03-21T00:42:26;8.10;;;2.13;;
72882;SDS011;61017;37.812;-122.286;2023-03-21T00:43:57;7.18;;;2.00;;
72882;SDS011;61017;37.812;-122.286;2023-03-21T00:45:29;6.63;;;1.95;;
72882;SDS011;61017;37.812;-122.286;2023-03-21T00:47:03;7.65;;;2.08;;
72882;SDS011;61017;37.812;-122.286;2023-03-21T00:48:35;7.55;;;2.22;;
72882;SDS011;61017;37.812;-122.286;2023-03-21T00:50:07;6.65;;;2.00;;
72882;SDS011;61017;37.812;-122.286;2023-03-21T00:51:39;9.52;;;2.28;;
72882;SDS011;61017;37.812;-122.286;2023-03-21T00:53:11;5.72;;;1.60;;
72882;SDS011;61017;37.812;-122.286;2023-03-21T00:56:15;7.80;;;2.10;;
72882;SDS011;61017;37.812;-122.286;2023-03-21T00:57:47;7.40;;;2.00;;
72882;SDS011;61017;37.812;-122.286;2023-03-21T00:59:18;9.30;;;1.98;;
72882;SDS011;61017;37.812;-122.286;2023-03-21T01:00:50;6.90;;;1.88;;
72882;SDS011;61017;37.812;-122.286;2023-03-21T01:02:22;8.98;;;2.53;;
72882;SDS011;61017;37.812;-122.286;2023-03-21T01:03:54;5.50;;;1.92;;
72882;SDS011;61017;37.812;-122.286;2023-03-21T01:05:27;8.10;;;2.20;;
72882;SDS011;61017;37.812;-122.286;2023-03-21T01:07:00;9.27;;;2.00;;
72882;SDS011;61017;37.812;-122.286;2023-03-21T01:08:32;6.28;;;1.90;;
72882;SDS011;61017;37.812;-122.286;2023-03-21T01:10:05;9.75;;;2.08;;
72882;SDS011;61017;37.812;-122.286;2023-03-21T01:11:37;6.45;;;2.20;;
72882;SDS011;61017;37.812;-122.286;2023-03-21T01:13:09;8.02;;;2.03;;
72882;SDS011;61017;37.812;-122.286;2023-03-21T01:16:13;9.25;;;2.20;;
72882;SDS011;61017;37.812;-122.286;2023-03-21T01:17:44;7.13;;;1.77;;
72882;SDS011;61017;37.812;-122.286;2023-03-21T01:19:17;6.28;;;2.10;;
72882;SDS011;61017;37.812;-122.286;2023-03-21T01:20:50;8.88;;;1.98;;
72882;SDS011;61017;37.812;-122.286;2023-03-21T01:22:22;7.17;;;1.87;;
72882;SDS011;61017;37.812;-122.286;2023-03-21T01:23:53;8.23;;;1.67;;
72882;SDS011;61017;37.812;-122.286;2023-03-21T01:25:25;5.85;;;1.85;;
72882;SDS011;61017;37.812;-122.286;2023-03-21T01:26:56;8.10;;;2.05;;
72882;SDS011;61017;37.812;-122.286;2023-03-21T01:28:28;6.10;;;1.98;;
72882;SDS011;61017;37.812;-122.286;2023-03-21T01:30:00;7.90;;;1.98;;
72882;SDS011;61017;37.812;-122.286;2023-03-21T01:31:32;11.43;;;2.15;;
72882;SDS011;61017;37.812;-122.286;2023-03-21T01:33:04;10.52;;;2.65;;
72882;SDS011;61017;37.812;-122.286;2023-03-21T01:34:35;6.72;;;2.17;;
72882;SDS011;61017;37.812;-122.286;2023-03-21T01:36:07;9.18;;;2.10;;
72882;SDS011;61017;37.812;-122.286;2023-03-21T01:37:43;8.27;;;2.00;;
72882;SDS011;61017;37.812;-122.286;2023-03-21T01:39:14;7.78;;;1.95;;
72882;SDS011;61017;37.812;-122.286;2023-03-21T01:40:46;9.68;;;2.17;;
72882;SDS011;61017;37.812;-122.286;2023-03-21T01:42:19;11.30;;;2.53;;
72882;SDS011;61017;37.812;-122.286;2023-03-21T01:43:50;7.00;;;1.90;;
72882;SDS011;61017;37.812;-122.286;2023-03-21T01:47:31;7.15;;;2.05;;
72882;SDS011;61017;37.812;-122.286;2023-03-21T01:49:04;16.00;;;2.20;;
72882;SDS011;61017;37.812;-122.286;2023-03-21T01:50:36;5.97;;;1.80;;
72882;SDS011;61017;37.812;-122.286;2023-03-21T01:52:11;5.95;;;1.77;;
72882;SDS011;61017;37.812;-122.286;2023-03-21T01:53:46;9.00;;;2.33;;
72882;SDS011;61017;37.812;-122.286;2023-03-21T01:55:18;5.37;;;1.87;;
72882;SDS011;61017;37.812;-122.286;2023-03-21T01:56:50;7.13;;;1.92;;
72882;SDS011;61017;37.812;-122.286;2023-03-21T01:58:24;10.20;;;2.00;;
72882;SDS011;61017;37.812;-122.286;2023-03-21T01:59:57;5.32;;;1.70;;
72882;SDS011;61017;37.812;-122.286;2023-03-21T02:01:32;5.57;;;1.70;;
72882;SDS011;61017;37.812;-122.286;2023-03-21T02:03:04;8.25;;;1.92;;
72882;SDS011;61017;37.812;-122.286;2023-03-21T02:04:39;8.25;;;2.30;;
72882;SDS011;61017;37.812;-122.286;2023-03-21T02:06:11;6.60;;;1.90;;
72882;SDS011;61017;37.812;-122.286;2023-03-21T02:07:44;7.13;;;1.90;;
72882;SDS011;61017;37.812;-122.286;2023-03-21T02:09:20;7.20;;;2.00;;
72882;SDS011;61017;37.812;-122.286;2023-03-21T02:10:54;7.18;;;2.20;;
72882;SDS011;61017;37.812;-122.286;2023-03-21T02:12:26;7.70;;;1.90;;
72882;SDS011;61017;37.812;-122.286;2023-03-21T02:13:58;9.57;;;2.00;;
72882;SDS011;61017;37.812;-122.286;2023-03-21T02:15:29;5.80;;;1.85;;
72882;SDS011;61017;37.812;-122.286;2023-03-21T02:18:45;8.20;;;1.80;;
72882;SDS011;61017;37.812;-122.286;2023-03-21T02:20:27;9.43;;;2.15;;
72882;SDS011;61017;37.812;-122.286;2023-03-21T02:24:03;6.55;;;1.83;;
72882;SDS011;61017;37.812;-122.286;2023-03-21T02:27:51;10.45;;;2.10;;
72882;SDS011;61017;37.812;-122.286;2023-03-21T02:29:56;9.02;;;2.05;;
72882;SDS011;61017;37.812;-122.286;2023-03-21T02:35:57;9.65;;;2.20;;
72882;SDS011;61017;37.812;-122.286;2023-03-21T02:43:31;8.18;;;2.15;;
72882;SDS011;61017;37.812;-122.286;2023-03-21T02:45:16;8.93;;;2.20;;
72882;SDS011;61017;37.812;-122.286;2023-03-21T02:46:57;11.15;;;2.10;;
72882;SDS011;61017;37.812;-122.286;2023-03-21T02:48:38;9.02;;;2.10;;
72882;SDS011;61017;37.812;-122.286;2023-03-21T02:52:31;10.15;;;1.90;;
72882;SDS011;61017;37.812;-122.286;2023-03-21T02:54:10;10.60;;;2.15;;
72882;SDS011;61017;37.812;-122.286;2023-03-21T02:55:49;8.32;;;2.20;;
72882;SDS011;61017;37.812;-122.286;2023-03-21T02:57:22;10.75;;;2.50;;
72882;SDS011;61017;37.812;-122.286;2023-03-21T02:58:54;7.93;;;2.30;;
72882;SDS011;61017;37.812;-122.286;2023-03-21T03:00:27;6.95;;;2.00;;
72882;SDS011;61017;37.812;-122.286;2023-03-21T03:02:00;8.50;;;2.08;;
72882;SDS011;61017;37.812;-122.286;2023-03-21T03:03:34;7.75;;;2.00;;
72882;SDS011;61017;37.812;-122.286;2023-03-21T03:05:16;9.15;;;2.25;;
72882;SDS011;61017;37.812;-122.286;2023-03-21T03:08:53;10.32;;;2.50;;
72882;SDS011;61017;37.812;-122.286;2023-03-21T03:10:42;12.45;;;2.22;;
72882;SDS011;61017;37.812;-122.286;2023-03-21T03:14:39;10.50;;;1.80;;
72882;SDS011;61017;37.812;-122.286;2023-03-21T03:19:33;7.55;;;2.15;;
72882;SDS011;61017;37.812;-122.286;2023-03-21T03:25:06;9.07;;;2.33;;
72882;SDS011;61017;37.812;-122.286;2023-03-21T03:28:20;6.43;;;2.05;;
72882;SDS011;61017;37.812;-122.286;2023-03-21T03:29:56;9.48;;;2.03;;
72882;SDS011;61017;37.812;-122.286;2023-03-21T03:32:14;8.90;;;2.20;;
72882;SDS011;61017;37.812;-122.286;2023-03-21T03:33:36;8.07;;;1.98;;
72882;SDS011;61017;37.812;-122.286;2023-03-21T03:35:12;7.82;;;2.00;;
72882;SDS011;61017;37.812;-122.286;2023-03-21T03:36:48;7.05;;;2.03;;
72882;SDS011;61017;37.812;-122.286;2023-03-21T03:38:24;8.68;;;2.15;;
72882;SDS011;61017;37.812;-122.286;2023-03-21T03:42:04;7.22;;;2.22;;
72882;SDS011;61017;37.812;-122.286;2023-03-21T03:43:48;7.50;;;2.10;;
72882;SDS011;61017;37.812;-122.286;2023-03-21T03:45:30;12.50;;;2.30;;
72882;SDS011;61017;37.812;-122.286;2023-03-21T03:47:10;10.05;;;2.20;;
72882;SDS011;61017;37.812;-122.286;2023-03-21T03:48:48;11.32;;;2.10;;
72882;SDS011;61017;37.812;-122.286;2023-03-21T03:54:00;9.27;;;2.20;;
72882;SDS011;61017;37.812;-122.286;2023-03-21T03:55:42;10.32;;;1.98;;
72882;SDS011;61017;37.812;-122.286;2023-03-21T03:57:14;11.27;;;2.00;;
72882;SDS011;61017;37.812;-122.286;2023-03-21T03:58:46;8.77;;;2.00;;
72882;SDS011;61017;37.812;-122.286;2023-03-21T04:00:18;8.13;;;1.80;;
72882;SDS011;61017;37.812;-122.286;2023-03-21T04:01:50;5.47;;;1.88;;
72882;SDS011;61017;37.812;-122.286;2023-03-21T04:03:22;10.38;;;2.33;;
72882;SDS011;61017;37.812;-122.286;2023-03-21T04:04:53;6.15;;;1.70;;
72882;SDS011;61017;37.812;-122.286;2023-03-21T04:06:25;7.78;;;1.90;;
72882;SDS011;61017;37.812;-122.286;2023-03-21T04:07:57;7.55;;;2.00;;
72882;SDS011;61017;37.812;-122.286;2023-03-21T04:09:29;7.68;;;2.00;;
72882;SDS011;61017;37.812;-122.286;2023-03-21T04:11:01;12.00;;;2.10;;
72882;SDS011;61017;37.812;-122.286;2023-03-21T04:12:32;10.48;;;2.28;;
72882;SDS011;61017;37.812;-122.286;2023-03-21T04:14:04;6.82;;;2.05;;
72882;SDS011;61017;37.812;-122.286;2023-03-21T04:15:35;9.20;;;1.95;;
72882;SDS011;61017;37.812;-122.286;2023-03-21T04:17:10;12.27;;;2.28;;
72882;SDS011;61017;37.812;-122.286;2023-03-21T04:18:41;5.30;;;1.85;;
72882;SDS011;61017;37.812;-122.286;2023-03-21T04:20:13;6.47;;;1.80;;
72882;SDS011;61017;37.812;-122.286;2023-03-21T04:21:46;6.15;;;2.33;;
72882;SDS011;61017;37.812;-122.286;2023-03-21T04:23:18;7.68;;;1.98;;
72882;SDS011;61017;37.812;-122.286;2023-03-21T04:24:49;6.05;;;2.22;;
72882;SDS011;61017;37.812;-122.286;2023-03-21T04:26:21;8.88;;;2.20;;
72882;SDS011;61017;37.812;-122.286;2023-03-21T04:27:53;10.02;;;2.10;;
72882;SDS011;61017;37.812;-122.286;2023-03-21T04:29:25;6.78;;;2.28;;
72882;SDS011;61017;37.812;-122.286;2023-03-21T04:30:56;8.88;;;2.05;;
72882;SDS011;61017;37.812;-122.286;2023-03-21T04:32:28;7.93;;;2.20;;
72882;SDS011;61017;37.812;-122.286;2023-03-21T04:34:00;4.90;;;1.83;;
72882;SDS011;61017;37.812;-122.286;2023-03-21T04:35:37;8.05;;;1.95;;
72882;SDS011;61017;37.812;-122.286;2023-03-21T04:37:09;5.97;;;1.70;;
72882;SDS011;61017;37.812;-122.286;2023-03-21T04:38:43;8.85;;;2.08;;
72882;SDS011;61017;37.812;-122.286;2023-03-21T04:40:14;8.52;;;2.13;;
72882;SDS011;61017;37.812;-122.286;2023-03-21T04:41:46;8.75;;;2.15;;
72882;SDS011;61017;37.812;-122.286;2023-03-21T04:43:18;6.05;;;1.80;;
72882;SDS011;61017;37.812;-122.286;2023-03-21T04:44:50;9.10;;;2.00;;
72882;SDS011;61017;37.812;-122.286;2023-03-21T04:46:22;7.27;;;2.07;;
72882;SDS011;61017;37.812;-122.286;2023-03-21T04:47:54;7.90;;;1.90;;
72882;SDS011;61017;37.812;-122.286;2023-03-21T04:49:25;8.38;;;2.10;;
72882;SDS011;61017;37.812;-122.286;2023-03-21T04:50:58;8.32;;;2.22;;
72882;SDS011;61017;37.812;-122.286;2023-03-21T04:52:29;5.05;;;1.73;;
72882;SDS011;61017;37.812;-122.286;2023-03-21T04:54:01;6.35;;;2.05;;
72882;SDS011;61017;37.812;-122.286;2023-03-21T04:55:32;6.13;;;1.98;;
72882;SDS011;61017;37.812;-122.286;2023-03-21T04:57:04;5.00;;;1.80;;
72882;SDS011;61017;37.812;-122.286;2023-03-21T04:58:36;5.28;;;1.65;;
72882;SDS011;61017;37.812;-122.286;2023-03-21T05:00:08;6.63;;;1.90;;
72882;SDS011;61017;37.812;-122.286;2023-03-21T05:01:40;5.25;;;1.80;;
72882;SDS011;61017;37.812;-122.286;2023-03-21T05:03:12;5.28;;;1.77;;
72882;SDS011;61017;37.812;-122.286;2023-03-21T05:04:43;4.30;;;1.70;;
72882;SDS011;61017;37.812;-122.286;2023-03-21T05:06:15;7.70;;;1.95;;
72882;SDS011;61017;37.812;-122.286;2023-03-21T05:07:46;5.25;;;1.70;;
72882;SDS011;61017;37.812;-122.286;2023-03-21T05:09:18;4.60;;;2.00;;
72882;SDS011;61017;37.812;-122.286;2023-03-21T05:10:50;4.00;;;1.67;;
72882;SDS011;61017;37.812;-122.286;2023-03-21T05:12:22;5.85;;;2.13;;
72882;SDS011;61017;37.812;-122.286;2023-03-21T05:13:53;6.32;;;1.75;;
72882;SDS011;61017;37.812;-122.286;2023-03-21T05:15:25;5.00;;;1.65;;
72882;SDS011;61017;37.812;-122.286;2023-03-21T05:16:58;5.97;;;1.90;;
72882;SDS011;61017;37.812;-122.286;2023-03-21T05:18:30;7.18;;;1.80;;
72882;SDS011;61017;37.812;-122.286;2023-03-21T05:20:01;6.03;;;2.08;;
72882;SDS011;61017;37.812;-122.286;2023-03-21T05:21:33;6.13;;;2.03;;
72882;SDS011;61017;37.812;-122.286;2023-03-21T05:23:05;4.10;;;1.73;;
72882;SDS011;61017;37.812;-122.286;2023-03-21T05:24:37;5.35;;;1.70;;
72882;SDS011;61017;37.812;-122.286;2023-03-21T05:26:08;5.28;;;1.50;;
72882;SDS011;61017;37.812;-122.286;2023-03-21T05:27:40;6.40;;;1.67;;
72882;SDS011;61017;37.812;-122.286;2023-03-21T05:29:12;6.35;;;1.58;;
72882;SDS011;61017;37.812;-122.286;2023-03-21T05:30:44;4.15;;;1.50;;
72882;SDS011;61017;37.812;-122.286;2023-03-21T05:32:16;5.82;;;1.60;;
72882;SDS011;61017;37.812;-122.286;2023-03-21T05:33:47;4.57;;;1.50;;
72882;SDS011;61017;37.812;-122.286;2023-03-21T05:35:19;5.72;;;1.63;;
72882;SDS011;61017;37.812;-122.286;2023-03-21T05:36:51;6.05;;;1.65;;
72882;SDS011;61017;37.812;-122.286;2023-03-21T05:38:23;6.75;;;1.80;;
72882;SDS011;61017;37.812;-122.286;2023-03-21T05:39:55;4.35;;;1.80;;
72882;SDS011;61017;37.812;-122.286;2023-03-21T05:41:26;5.35;;;1.73;;
72882;SDS011;61017;37.812;-122.286;2023-03-21T05:42:58;4.65;;;1.50;;
72882;SDS011;61017;37.812;-122.286;2023-03-21T05:44:30;4.90;;;1.67;;
72882;SDS011;61017;37.812;-122.286;2023-03-21T05:46:01;4.22;;;1.60;;
72882;SDS011;61017;37.812;-122.286;2023-03-21T05:47:33;4.82;;;1.70;;
72882;SDS011;61017;37.812;-122.286;2023-03-21T05:49:04;5.65;;;1.60;;
72882;SDS011;61017;37.812;-122.286;2023-03-21T05:50:37;6.75;;;1.90;;
72882;SDS011;61017;37.812;-122.286;2023-03-21T05:52:09;5.95;;;1.77;;
72882;SDS011;61017;37.812;-122.286;2023-03-21T05:53:40;4.63;;;1.65;;
72882;SDS011;61017;37.812;-122.286;2023-03-21T05:55:12;6.45;;;1.77;;
72882;SDS011;61017;37.812;-122.286;2023-03-21T05:56:43;5.10;;;1.65;;
72882;SDS011;61017;37.812;-122.286;2023-03-21T05:58:15;3.70;;;1.45;;
72882;SDS011;61017;37.812;-122.286;2023-03-21T05:59:47;4.63;;;1.58;;
72882;SDS011;61017;37.812;-122.286;2023-03-21T06:01:18;3.97;;;1.40;;
72882;SDS011;61017;37.812;-122.286;2023-03-21T06:02:50;4.70;;;1.52;;
72882;SDS011;61017;37.812;-122.286;2023-03-21T06:04:21;4.05;;;1.50;;
72882;SDS011;61017;37.812;-122.286;2023-03-21T06:05:53;5.63;;;1.80;;
72882;SDS011;61017;37.812;-122.286;2023-03-21T06:07:25;6.28;;;1.60;;
72882;SDS011;61017;37.812;-122.286;2023-03-21T06:08:56;6.20;;;1.52;;
72882;SDS011;61017;37.812;-122.286;2023-03-21T06:10:28;3.60;;;1.52;;
72882;SDS011;61017;37.812;-122.286;2023-03-21T06:11:59;7.18;;;1.70;;
72882;SDS011;61017;37.812;-122.286;2023-03-21T06:13:31;4.22;;;1.60;;
72882;SDS011;61017;37.812;-122.286;2023-03-21T06:15:03;5.93;;;1.50;;
72882;SDS011;61017;37.812;-122.286;2023-03-21T06:16:35;6.22;;;1.70;;
72882;SDS011;61017;37.812;-122.286;2023-03-21T06:18:07;4.25;;;1.70;;
72882;SDS011;61017;37.812;-122.286;2023-03-21T06:19:39;4.88;;;1.63;;
72882;SDS011;61017;37.812;-122.286;2023-03-21T06:21:10;5.38;;;1.60;;
72882;SDS011;61017;37.812;-122.286;2023-03-21T06:22:42;3.22;;;1.30;;
72882;SDS011;61017;37.812;-122.286;2023-03-21T06:24:14;5.05;;;1.52;;
72882;SDS011;61017;37.812;-122.286;2023-03-21T06:25:46;4.10;;;1.80;;
72882;SDS011;61017;37.812;-122.286;2023-03-21T06:27:18;4.63;;;1.75;;
72882;SDS011;61017;37.812;-122.286;2023-03-21T06:28:49;5.35;;;1.73;;
72882;SDS011;61017;37.812;-122.286;2023-03-21T06:30:22;5.75;;;1.40;;
72882;SDS011;61017;37.812;-122.286;2023-03-21T06:31:53;5.78;;;1.50;;
72882;SDS011;61017;37.812;-122.286;2023-03-21T06:33:25;4.93;;;1.50;;
72882;SDS011;61017;37.812;-122.286;2023-03-21T06:34:56;5.13;;;1.60;;
72882;SDS011;61017;37.812;-122.286;2023-03-21T06:36:28;5.43;;;1.40;;
72882;SDS011;61017;37.812;-122.286;2023-03-21T06:38:00;3.33;;;1.50;;
72882;SDS011;61017;37.812;-122.286;2023-03-21T06:39:31;5.38;;;1.45;;
72882;SDS011;61017;37.812;-122.286;2023-03-21T06:41:03;4.20;;;1.50;;
72882;SDS011;61017;37.812;-122.286;2023-03-21T06:42:35;8.00;;;2.00;;
72882;SDS011;61017;37.812;-122.286;2023-03-21T06:44:07;6.95;;;1.67;;
72882;SDS011;61017;37.812;-122.286;2023-03-21T06:45:38;5.82;;;1.70;;
72882;SDS011;61017;37.812;-122.286;2023-03-21T06:47:10;4.85;;;1.65;;
72882;SDS011;61017;37.812;-122.286;2023-03-21T06:48:41;3.53;;;1.50;;
72882;SDS011;61017;37.812;-122.286;2023-03-21T06:50:13;4.13;;;1.50;;
72882;SDS011;61017;37.812;-122.286;2023-03-21T06:51:45;5.25;;;1.40;;
72882;SDS011;61017;37.812;-122.286;2023-03-21T06:53:17;4.47;;;1.50;;
72882;SDS011;61017;37.812;-122.286;2023-03-21T06:54:49;5.22;;;1.70;;
72882;SDS011;61017;37.812;-122.286;2023-03-21T06:56:24;6.15;;;1.80;;
72882;SDS011;61017;37.812;-122.286;2023-03-21T06:57:55;4.38;;;1.50;;
72882;SDS011;61017;37.812;-122.286;2023-03-21T06:59:27;5.53;;;1.60;;
72882;SDS011;61017;37.812;-122.286;2023-03-21T07:01:00;4.32;;;1.50;;
72882;SDS011;61017;37.812;-122.286;2023-03-21T07:02:32;4.90;;;1.60;;
72882;SDS011;61017;37.812;-122.286;2023-03-21T07:04:04;4.75;;;1.65;;
72882;SDS011;61017;37.812;-122.286;2023-03-21T07:05:35;4.95;;;1.50;;
72882;SDS011;61017;37.812;-122.286;2023-03-21T07:07:07;6.63;;;1.73;;
72882;SDS011;61017;37.812;-122.286;2023-03-21T07:08:39;5.85;;;1.50;;
72882;SDS011;61017;37.812;-122.286;2023-03-21T07:10:11;5.72;;;1.80;;
72882;SDS011;61017;37.812;-122.286;2023-03-21T07:11:46;7.60;;;1.63;;
72882;SDS011;61017;37.812;-122.286;2023-03-21T07:13:17;5.93;;;1.67;;
72882;SDS011;61017;37.812;-122.286;2023-03-21T07:14:49;5.13;;;1.60;;
72882;SDS011;61017;37.812;-122.286;2023-03-21T07:16:20;6.45;;;1.40;;
72882;SDS011;61017;37.812;-122.286;2023-03-21T07:17:52;4.65;;;1.73;;
72882;SDS011;61017;37.812;-122.286;2023-03-21T07:19:23;4.30;;;1.50;;
72882;SDS011;61017;37.812;-122.286;2023-03-21T07:20:55;6.93;;;1.90;;
72882;SDS011;61017;37.812;-122.286;2023-03-21T07:22:27;4.55;;;1.60;;
72882;SDS011;61017;37.812;-122.286;2023-03-21T07:23:58;4.20;;;1.50;;
72882;SDS011;61017;37.812;-122.286;2023-03-21T07:25:30;4.75;;;1.60;;
72882;SDS011;61017;37.812;-122.286;2023-03-21T07:27:02;6.63;;;1.60;;
72882;SDS011;61017;37.812;-122.286;2023-03-21T07:28:33;3.63;;;1.40;;
72882;SDS011;61017;37.812;-122.286;2023-03-21T07:30:13;4.00;;;1.42;;
72882;SDS011;61017;37.812;-122.286;2023-03-21T07:31:45;4.13;;;1.40;;
72882;SDS011;61017;37.812;-122.286;2023-03-21T07:33:17;5.95;;;1.60;;
72882;SDS011;61017;37.812;-122.286;2023-03-21T07:34:49;4.03;;;1.40;;
72882;SDS011;61017;37.812;-122.286;2023-03-21T07:36:20;4.30;;;1.60;;
72882;SDS011;61017;37.812;-122.286;2023-03-21T07:37:53;5.22;;;1.60;;
72882;SDS011;61017;37.812;-122.286;2023-03-21T07:39:25;4.72;;;1.40;;
72882;SDS011;61017;37.812;-122.286;2023-03-21T07:40:57;6.15;;;1.63;;
72882;SDS011;61017;37.812;-122.286;2023-03-21T07:42:29;3.53;;;1.58;;
72882;SDS011;61017;37.812;-122.286;2023-03-21T07:44:00;4.53;;;1.50;;
72882;SDS011;61017;37.812;-122.286;2023-03-21T07:45:32;5.35;;;1.70;;
72882;SDS011;61017;37.812;-122.286;2023-03-21T07:47:04;3.90;;;1.45;;
72882;SDS011;61017;37.812;-122.286;2023-03-21T07:48:35;4.22;;;1.48;;
72882;SDS011;61017;37.812;-122.286;2023-03-21T07:50:07;6.28;;;1.50;;
72882;SDS011;61017;37.812;-122.286;2023-03-21T07:51:39;5.47;;;1.40;;
72882;SDS011;61017;37.812;-122.286;2023-03-21T07:53:11;4.40;;;1.67;;
72882;SDS011;61017;37.812;-122.286;2023-03-21T07:54:42;5.53;;;1.67;;
72882;SDS011;61017;37.812;-122.286;2023-03-21T07:56:14;5.75;;;1.95;;
72882;SDS011;61017;37.812;-122.286;2023-03-21T07:57:48;6.82;;;1.63;;
72882;SDS011;61017;37.812;-122.286;2023-03-21T07:59:19;6.78;;;2.20;;
72882;SDS011;61017;37.812;-122.286;2023-03-21T08:00:51;9.48;;;1.73;;
72882;SDS011;61017;37.812;-122.286;2023-03-21T08:02:23;6.50;;;2.00;;
72882;SDS011;61017;37.812;-122.286;2023-03-21T08:03:55;6.85;;;1.83;;
72882;SDS011;61017;37.812;-122.286;2023-03-21T08:05:27;5.95;;;1.73;;
72882;SDS011;61017;37.812;-122.286;2023-03-21T08:07:02;5.38;;;1.63;;
72882;SDS011;61017;37.812;-122.286;2023-03-21T08:08:34;5.43;;;1.60;;
72882;SDS011;61017;37.812;-122.286;2023-03-21T08:10:06;5.53;;;1.92;;
72882;SDS011;61017;37.812;-122.286;2023-03-21T08:11:40;5.68;;;1.80;;
72882;SDS011;61017;37.812;-122.286;2023-03-21T08:13:12;7.20;;;1.80;;
72882;SDS011;61017;37.812;-122.286;2023-03-21T08:14:43;8.85;;;1.77;;
72882;SDS011;61017;37.812;-122.286;2023-03-21T08:16:15;7.45;;;1.85;;
72882;SDS011;61017;37.812;-122.286;2023-03-21T08:17:47;6.00;;;1.77;;
72882;SDS011;61017;37.812;-122.286;2023-03-21T08:19:19;6.13;;;2.20;;
72882;SDS011;61017;37.812;-122.286;2023-03-21T08:20:51;8.02;;;2.10;;
72882;SDS011;61017;37.812;-122.286;2023-03-21T08:22:23;6.78;;;2.00;;
72882;SDS011;61017;37.812;-122.286;2023-03-21T08:23:55;8.32;;;1.85;;
72882;SDS011;61017;37.812;-122.286;2023-03-21T08:25:27;5.78;;;1.80;;
72882;SDS011;61017;37.812;-122.286;2023-03-21T08:26:59;5.63;;;1.73;;
72882;SDS011;61017;37.812;-122.286;2023-03-21T08:28:31;8.57;;;1.90;;
72882;SDS011;61017;37.812;-122.286;2023-03-21T08:30:03;6.88;;;2.22;;
72882;SDS011;61017;37.812;-122.286;2023-03-21T08:31:35;7.00;;;2.07;;
72882;SDS011;61017;37.812;-122.286;2023-03-21T08:33:06;7.78;;;2.00;;
72882;SDS011;61017;37.812;-122.286;2023-03-21T08:34:38;7.43;;;2.10;;
72882;SDS011;61017;37.812;-122.286;2023-03-21T08:36:10;8.40;;;2.00;;
72882;SDS011;61017;37.812;-122.286;2023-03-21T08:37:41;5.88;;;1.90;;
72882;SDS011;61017;37.812;-122.286;2023-03-21T08:40:45;7.57;;;2.00;;
72882;SDS011;61017;37.812;-122.286;2023-03-21T08:42:17;8.20;;;2.00;;
72882;SDS011;61017;37.812;-122.286;2023-03-21T08:43:50;6.32;;;2.10;;
72882;SDS011;61017;37.812;-122.286;2023-03-21T08:45:21;5.18;;;1.95;;
72882;SDS011;61017;37.812;-122.286;2023-03-21T08:46:53;6.22;;;2.08;;
72882;SDS011;61017;37.812;-122.286;2023-03-21T08:48:24;4.60;;;1.90;;
72882;SDS011;61017;37.812;-122.286;2023-03-21T08:49:56;8.75;;;2.08;;
72882;SDS011;61017;37.812;-122.286;2023-03-21T08:51:28;8.15;;;2.05;;
72882;SDS011;61017;37.812;-122.286;2023-03-21T08:52:59;7.30;;;2.05;;
72882;SDS011;61017;37.812;-122.286;2023-03-21T08:54:31;6.32;;;1.90;;
72882;SDS011;61017;37.812;-122.286;2023-03-21T08:56:03;6.88;;;1.70;;
72882;SDS011;61017;37.812;-122.286;2023-03-21T08:57:34;6.40;;;2.17;;
72882;SDS011;61017;37.812;-122.286;2023-03-21T08:59:06;8.35;;;2.28;;
72882;SDS011;61017;37.812;-122.286;2023-03-21T09:00:37;6.38;;;2.10;;
72882;SDS011;61017;37.812;-122.286;2023-03-21T09:02:13;5.82;;;1.75;;
72882;SDS011;61017;37.812;-122.286;2023-03-21T09:03:45;5.47;;;1.88;;
72882;SDS011;61017;37.812;-122.286;2023-03-21T09:05:17;6.45;;;2.08;;
72882;SDS011;61017;37.812;-122.286;2023-03-21T09:06:49;9.63;;;2.30;;
72882;SDS011;61017;37.812;-122.286;2023-03-21T09:08:21;7.45;;;2.15;;
72882;SDS011;61017;37.812;-122.286;2023-03-21T09:09:53;5.43;;;2.13;;
72882;SDS011;61017;37.812;-122.286;2023-03-21T09:11:25;9.60;;;2.30;;
72882;SDS011;61017;37.812;-122.286;2023-03-21T09:12:56;7.97;;;2.30;;
72882;SDS011;61017;37.812;-122.286;2023-03-21T09:14:28;8.85;;;2.40;;
72882;SDS011;61017;37.812;-122.286;2023-03-21T09:15:59;5.68;;;2.10;;
72882;SDS011;61017;37.812;-122.286;2023-03-21T09:17:31;6.60;;;2.33;;
72882;SDS011;61017;37.812;-122.286;2023-03-21T09:19:02;5.93;;;1.98;;
72882;SDS011;61017;37.812;-122.286;2023-03-21T09:20:34;5.30;;;2.08;;
72882;SDS011;61017;37.812;-122.286;2023-03-21T09:22:05;7.45;;;2.42;;
72882;SDS011;61017;37.812;-122.286;2023-03-21T09:23:38;10.50;;;2.45;;
72882;SDS011;61017;37.812;-122.286;2023-03-21T09:25:13;7.38;;;2.60;;
72882;SDS011;61017;37.812;-122.286;2023-03-21T09:26:45;8.52;;;2.63;;
72882;SDS011;61017;37.812;-122.286;2023-03-21T09:28:17;9.85;;;2.38;;
72882;SDS011;61017;37.812;-122.286;2023-03-21T09:29:49;7.88;;;2.58;;
72882;SDS011;61017;37.812;-122.286;2023-03-21T09:31:21;8.15;;;2.45;;
72882;SDS011;61017;37.812;-122.286;2023-03-21T09:32:52;6.97;;;2.60;;
72882;SDS011;61017;37.812;-122.286;2023-03-21T09:34:24;7.80;;;2.50;;
72882;SDS011;61017;37.812;-122.286;2023-03-21T09:35:56;6.88;;;2.50;;
72882;SDS011;61017;37.812;-122.286;2023-03-21T09:37:27;7.00;;;2.90;;
72882;SDS011;61017;37.812;-122.286;2023-03-21T09:38:59;7.93;;;2.78;;